createdAt,value
2017-11-06T00:00:25.972Z,0
2017-11-06T00:01:35.607Z,0
2017-11-06T00:02:45.899Z,0
2017-11-06T00:03:56.227Z,0
2017-11-06T00:05:06.517Z,0
2017-11-06T00:06:16.828Z,0
2017-11-06T00:07:27.135Z,0
2017-11-06T00:08:37.098Z,0
2017-11-06T00:09:47.381Z,0
2017-11-06T00:10:57.667Z,0
2017-11-06T00:12:07.964Z,0
2017-11-06T00:13:17.968Z,0
2017-11-06T00:14:27.927Z,0
2017-11-06T00:15:38.218Z,0
2017-11-06T00:16:48.518Z,0
2017-11-06T00:17:58.480Z,0
2017-11-06T00:19:08.797Z,0
2017-11-06T00:20:19.097Z,0
2017-11-06T00:21:29.395Z,0
2017-11-06T00:22:39.399Z,0
2017-11-06T00:23:49.701Z,0
2017-11-06T00:24:59.983Z,0
2017-11-06T00:26:10.284Z,0
2017-11-06T00:27:20.578Z,0
2017-11-06T00:28:30.861Z,0
2017-11-06T00:29:41.151Z,0
2017-11-06T00:30:51.463Z,0
2017-11-06T00:32:01.761Z,0
2017-11-06T00:33:11.721Z,0
2017-11-06T00:34:21.355Z,0
2017-11-06T00:35:31.645Z,0
2017-11-06T00:36:41.938Z,0
2017-11-06T00:37:52.228Z,0
2017-11-06T00:39:02.534Z,0
2017-11-06T00:40:12.504Z,0
2017-11-06T00:41:22.806Z,0
2017-11-06T00:42:33.108Z,0
2017-11-06T00:43:43.411Z,0
2017-11-06T00:44:53.695Z,0
2017-11-06T00:46:03.664Z,0
2017-11-06T00:47:13.967Z,0
2017-11-06T00:48:23.931Z,0
2017-11-06T00:49:33.888Z,0
2017-11-06T00:50:43.860Z,0
2017-11-06T00:51:54.153Z,0
2017-11-06T00:53:03.789Z,0
2017-11-06T00:54:14.091Z,0
2017-11-06T00:55:24.380Z,0
2017-11-06T00:56:34.345Z,0
2017-11-06T00:57:44.649Z,0
2017-11-06T00:58:54.933Z,0
2017-11-06T01:00:05.226Z,0
2017-11-06T01:01:15.204Z,0
2017-11-06T01:02:25.508Z,0
2017-11-06T01:03:35.519Z,0
2017-11-06T01:04:45.821Z,0
2017-11-06T01:05:55.138Z,0
2017-11-06T01:07:04.777Z,0
2017-11-06T01:08:15.082Z,0
2017-11-06T01:09:25.384Z,0
2017-11-06T01:10:35.695Z,0
2017-11-06T01:11:45.652Z,0
2017-11-06T01:12:55.951Z,0
2017-11-06T01:14:06.263Z,0
2017-11-06T01:15:16.563Z,0
2017-11-06T01:16:26.864Z,0
2017-11-06T01:17:36.829Z,0
2017-11-06T01:18:47.139Z,0
2017-11-06T01:19:56.773Z,0
2017-11-06T01:21:07.068Z,0
2017-11-06T01:22:17.359Z,0
2017-11-06T01:23:27.337Z,0
2017-11-06T01:24:37.300Z,0
2017-11-06T01:25:47.591Z,0
2017-11-06T01:26:57.885Z,0
2017-11-06T01:28:07.521Z,0
2017-11-06T01:29:17.168Z,0
2017-11-06T01:30:27.471Z,0
2017-11-06T01:31:37.445Z,0
2017-11-06T01:32:47.753Z,0
2017-11-06T01:33:57.717Z,0
2017-11-06T01:35:07.680Z,0
2017-11-06T01:36:17.662Z,0
2017-11-06T01:37:27.966Z,0
2017-11-06T01:38:38.256Z,0
2017-11-06T01:39:48.548Z,0
2017-11-06T01:40:58.831Z,0
2017-11-06T01:42:09.131Z,0
2017-11-06T01:43:19.436Z,0
2017-11-06T01:44:29.415Z,0
2017-11-06T01:45:39.720Z,0
2017-11-06T01:46:49.692Z,0
2017-11-06T01:47:59.985Z,0
2017-11-06T01:49:09.952Z,0
2017-11-06T01:50:19.917Z,0
2017-11-06T01:51:30.209Z,0
2017-11-06T01:52:40.509Z,0
2017-11-06T01:53:50.465Z,0
2017-11-06T01:55:00.744Z,0
2017-11-06T01:56:11.040Z,0
2017-11-06T01:57:21.009Z,0
2017-11-06T01:58:31.313Z,0
2017-11-06T01:59:41.597Z,0
2017-11-06T02:00:51.896Z,0
2017-11-06T02:02:01.852Z,0
2017-11-06T02:03:12.082Z,0
2017-11-06T02:04:22.377Z,0
2017-11-06T02:05:32.665Z,0
2017-11-06T02:06:42.956Z,0
2017-11-06T02:07:52.919Z,0
2017-11-06T02:09:02.886Z,0
2017-11-06T02:10:13.185Z,0
2017-11-06T02:11:23.485Z,0
2017-11-06T02:12:33.786Z,0
2017-11-06T02:13:44.070Z,0
2017-11-06T02:14:54.048Z,0
2017-11-06T02:16:04.012Z,0
2017-11-06T02:17:14.302Z,0
2017-11-06T02:18:24.364Z,0
2017-11-06T02:19:34.655Z,0
2017-11-06T02:20:44.942Z,0
2017-11-06T02:21:55.232Z,0
2017-11-06T02:23:05.527Z,0
2017-11-06T02:24:15.501Z,0
2017-11-06T02:25:25.806Z,0
2017-11-06T02:26:36.106Z,0
2017-11-06T02:27:46.406Z,0
2017-11-06T02:28:56.380Z,0
2017-11-06T02:30:06.695Z,0
2017-11-06T02:31:16.993Z,0
2017-11-06T02:32:26.964Z,0
2017-11-06T02:33:37.268Z,0
2017-11-06T02:34:47.563Z,0
2017-11-06T02:35:57.871Z,0
2017-11-06T02:37:07.508Z,0
2017-11-06T02:38:17.149Z,0
2017-11-06T02:39:27.440Z,0
2017-11-06T02:40:37.406Z,0
2017-11-06T02:41:47.716Z,0
2017-11-06T02:42:57.691Z,0
2017-11-06T02:44:08.246Z,0
2017-11-06T02:45:18.547Z,0
2017-11-06T02:46:28.536Z,0
2017-11-06T02:47:38.832Z,0
2017-11-06T02:48:48.800Z,0
2017-11-06T02:49:58.448Z,0
2017-11-06T02:51:08.741Z,0
2017-11-06T02:52:19.026Z,0
2017-11-06T02:53:28.980Z,0
2017-11-06T02:54:38.947Z,0
2017-11-06T02:55:49.240Z,0
2017-11-06T02:56:59.526Z,0
2017-11-06T02:58:09.844Z,0
2017-11-06T02:59:20.144Z,0
2017-11-06T03:00:30.453Z,0
2017-11-06T03:01:40.416Z,0
2017-11-06T03:02:50.718Z,0
2017-11-06T03:04:01.023Z,0
2017-11-06T03:05:11.309Z,0
2017-11-06T03:06:21.601Z,0
2017-11-06T03:07:31.576Z,0
2017-11-06T03:08:41.867Z,0
2017-11-06T03:09:51.851Z,0
2017-11-06T03:11:02.152Z,0
2017-11-06T03:12:12.437Z,0
2017-11-06T03:13:22.420Z,0
2017-11-06T03:14:32.386Z,0
2017-11-06T03:15:42.745Z,0
2017-11-06T03:16:52.401Z,0
2017-11-06T03:18:02.357Z,0
2017-11-06T03:19:12.655Z,0
2017-11-06T03:20:22.643Z,0
2017-11-06T03:21:32.932Z,0
2017-11-06T03:22:42.894Z,0
2017-11-06T03:23:53.191Z,0
2017-11-06T03:25:03.480Z,0
2017-11-06T03:26:13.140Z,0
2017-11-06T03:27:23.438Z,0
2017-11-06T03:28:33.730Z,0
2017-11-06T03:29:43.364Z,0
2017-11-06T03:30:53.679Z,0
2017-11-06T03:32:03.651Z,0
2017-11-06T03:33:13.951Z,0
2017-11-06T03:34:24.239Z,0
2017-11-06T03:35:34.530Z,0
2017-11-06T03:36:44.829Z,0
2017-11-06T03:37:55.121Z,0
2017-11-06T03:39:05.404Z,0
2017-11-06T03:40:15.381Z,0
2017-11-06T03:41:25.343Z,0
2017-11-06T03:42:35.322Z,0
2017-11-06T03:43:45.619Z,0
2017-11-06T03:44:55.916Z,0
2017-11-06T03:46:06.208Z,0
2017-11-06T03:47:16.513Z,0
2017-11-06T03:48:26.468Z,0
2017-11-06T03:49:36.772Z,0
2017-11-06T03:50:47.060Z,0
2017-11-06T03:51:57.346Z,0
2017-11-06T03:53:07.620Z,0
2017-11-06T03:54:17.586Z,0
2017-11-06T03:55:27.554Z,0
2017-11-06T03:56:37.838Z,0
2017-11-06T03:57:48.141Z,0
2017-11-06T03:58:58.439Z,0
2017-11-06T04:00:08.738Z,0
2017-11-06T04:01:19.030Z,0
2017-11-06T04:02:28.995Z,0
2017-11-06T04:03:39.299Z,0
2017-11-06T04:04:49.600Z,0
2017-11-06T04:05:59.921Z,0
2017-11-06T04:07:09.889Z,0
2017-11-06T04:08:20.114Z,0
2017-11-06T04:09:30.082Z,0
2017-11-06T04:10:40.378Z,0
2017-11-06T04:11:50.674Z,0
2017-11-06T04:13:00.646Z,0
2017-11-06T04:14:10.615Z,0
2017-11-06T04:15:20.902Z,0
2017-11-06T04:16:30.880Z,0
2017-11-06T04:17:40.860Z,0
2017-11-06T04:18:51.440Z,0
2017-11-06T04:20:01.734Z,0
2017-11-06T04:21:12.024Z,0
2017-11-06T04:22:21.669Z,0
2017-11-06T04:23:31.964Z,0
2017-11-06T04:24:42.246Z,0
2017-11-06T04:25:51.885Z,0
2017-11-06T04:27:01.848Z,0
2017-11-06T04:28:11.819Z,0
2017-11-06T04:29:22.103Z,0
2017-11-06T04:30:32.400Z,0
2017-11-06T04:31:42.691Z,0
2017-11-06T04:32:52.984Z,0
2017-11-06T04:34:03.289Z,0
2017-11-06T04:35:13.252Z,0
2017-11-06T04:36:23.605Z,0
2017-11-06T04:37:33.895Z,0
2017-11-06T04:38:43.872Z,0
2017-11-06T04:39:53.838Z,0
2017-11-06T04:41:04.130Z,0
2017-11-06T04:42:14.096Z,0
2017-11-06T04:43:24.371Z,0
2017-11-06T04:44:34.338Z,0
2017-11-06T04:45:44.625Z,0
2017-11-06T04:46:54.586Z,0
2017-11-06T04:48:04.549Z,0
2017-11-06T04:49:14.854Z,0
2017-11-06T04:50:24.818Z,0
2017-11-06T04:51:34.782Z,0
2017-11-06T04:52:45.077Z,0
2017-11-06T04:53:55.363Z,0
2017-11-06T04:55:05.328Z,0
2017-11-06T04:56:14.961Z,0
2017-11-06T04:57:24.600Z,0
2017-11-06T04:58:34.908Z,0
2017-11-06T04:59:45.194Z,0
2017-11-06T05:00:55.481Z,0
2017-11-06T05:02:05.115Z,0
2017-11-06T05:03:15.422Z,0
2017-11-06T05:04:25.395Z,0
2017-11-06T05:05:35.698Z,0
2017-11-06T05:06:45.995Z,0
2017-11-06T05:07:55.964Z,0
2017-11-06T05:09:06.257Z,0
2017-11-06T05:10:16.214Z,0
2017-11-06T05:11:26.508Z,0
2017-11-06T05:12:36.973Z,0
2017-11-06T05:13:47.282Z,0
2017-11-06T05:14:57.564Z,0
2017-11-06T05:16:07.892Z,0
2017-11-06T05:17:18.181Z,0
2017-11-06T05:18:28.476Z,0
2017-11-06T05:19:38.770Z,0
2017-11-06T05:20:48.770Z,0
2017-11-06T05:21:59.074Z,0
2017-11-06T05:23:09.039Z,0
2017-11-06T05:24:19.326Z,0
2017-11-06T05:25:29.659Z,0
2017-11-06T05:26:39.981Z,0
2017-11-06T05:27:49.953Z,0
2017-11-06T05:29:00.261Z,0
2017-11-06T05:30:10.551Z,0
2017-11-06T05:31:20.519Z,0
2017-11-06T05:32:30.802Z,0
2017-11-06T05:33:40.438Z,0
2017-11-06T05:34:50.742Z,0
2017-11-06T05:36:00.730Z,0
2017-11-06T05:37:11.016Z,0
2017-11-06T05:38:21.327Z,0
2017-11-06T05:39:31.615Z,0
2017-11-06T05:40:41.932Z,0
2017-11-06T05:41:52.234Z,4
2017-11-06T05:43:02.546Z,4
2017-11-06T05:44:12.845Z,4
2017-11-06T05:45:23.167Z,4
2017-11-06T05:46:33.122Z,8
2017-11-06T05:47:43.086Z,8
2017-11-06T05:48:53.380Z,8
2017-11-06T05:50:03.347Z,8
2017-11-06T05:51:13.307Z,12
2017-11-06T05:52:23.593Z,16
2017-11-06T05:53:33.884Z,20
2017-11-06T05:54:44.188Z,24
2017-11-06T05:55:54.149Z,32
2017-11-06T05:57:04.109Z,36
2017-11-06T05:58:14.071Z,40
2017-11-06T05:59:24.034Z,52
2017-11-06T06:00:34.336Z,64
2017-11-06T06:01:44.295Z,76
2017-11-06T06:02:54.595Z,92
2017-11-06T06:04:04.497Z,108
2017-11-06T06:05:14.517Z,128
2017-11-06T06:06:24.799Z,152
2017-11-06T06:07:34.776Z,180
2017-11-06T06:08:45.082Z,212
2017-11-06T06:09:55.383Z,240
2017-11-06T06:11:05.347Z,272
2017-11-06T06:12:15.636Z,304
2017-11-06T06:13:25.930Z,340
2017-11-06T06:14:35.903Z,368
2017-11-06T06:15:46.188Z,400
2017-11-06T06:16:55.824Z,432
2017-11-06T06:18:06.137Z,468
2017-11-06T06:19:16.428Z,504
2017-11-06T06:20:26.722Z,544
2017-11-06T06:21:36.692Z,580
2017-11-06T06:22:46.992Z,616
2017-11-06T06:23:56.987Z,652
2017-11-06T06:25:07.274Z,696
2017-11-06T06:26:17.571Z,736
2017-11-06T06:27:27.863Z,780
2017-11-06T06:28:38.178Z,828
2017-11-06T06:29:48.464Z,880
2017-11-06T06:30:58.759Z,932
2017-11-06T06:32:09.059Z,988
2017-11-06T06:33:19.351Z,1052
2017-11-06T06:34:29.327Z,1128
2017-11-06T06:35:39.644Z,1188
2017-11-06T06:36:49.941Z,1252
2017-11-06T06:38:00.223Z,1300
2017-11-06T06:39:10.178Z,1344
2017-11-06T06:40:20.925Z,1408
2017-11-06T06:41:31.331Z,1444
2017-11-06T06:42:41.335Z,1484
2017-11-06T06:43:51.630Z,1512
2017-11-06T06:45:01.935Z,1548
2017-11-06T06:46:12.215Z,1584
2017-11-06T06:47:21.995Z,1580
2017-11-06T06:48:32.308Z,1604
2017-11-06T06:49:42.589Z,1628
2017-11-06T06:50:52.912Z,1660
2017-11-06T06:52:02.887Z,1700
2017-11-06T06:53:13.192Z,1752
2017-11-06T06:54:23.494Z,1824
2017-11-06T06:55:33.786Z,1880
2017-11-06T06:56:44.085Z,1920
2017-11-06T06:57:54.455Z,1960
2017-11-06T06:59:04.459Z,2004
2017-11-06T07:00:14.756Z,2076
2017-11-06T07:01:25.049Z,2164
2017-11-06T07:02:35.347Z,2284
2017-11-06T07:03:45.634Z,2416
2017-11-06T07:04:55.942Z,2564
2017-11-06T07:06:06.243Z,2748
2017-11-06T07:07:16.536Z,2964
2017-11-06T07:08:26.492Z,3204
2017-11-06T07:09:36.457Z,3424
2017-11-06T07:10:46.115Z,3612
2017-11-06T07:11:56.100Z,3788
2017-11-06T07:13:06.120Z,3992
2017-11-06T07:14:16.421Z,4228
2017-11-06T07:15:26.728Z,4480
2017-11-06T07:16:37.060Z,4688
2017-11-06T07:17:47.073Z,4860
2017-11-06T07:18:57.425Z,4988
2017-11-06T07:20:07.424Z,5080
2017-11-06T07:21:17.136Z,5152
2017-11-06T07:22:27.462Z,5216
2017-11-06T07:23:37.776Z,5276
2017-11-06T07:24:47.741Z,5304
2017-11-06T07:25:57.712Z,5348
2017-11-06T07:27:07.695Z,5436
2017-11-06T07:28:18.107Z,5592
2017-11-06T07:29:28.661Z,5824
2017-11-06T07:30:38.631Z,6044
2017-11-06T07:31:48.609Z,6156
2017-11-06T07:32:58.638Z,6092
2017-11-06T07:34:08.934Z,5896
2017-11-06T07:35:19.254Z,5712
2017-11-06T07:36:29.543Z,5628
2017-11-06T07:37:39.853Z,5556
2017-11-06T07:38:50.137Z,5544
2017-11-06T07:40:00.102Z,5576
2017-11-06T07:41:10.425Z,5648
2017-11-06T07:42:20.428Z,5796
2017-11-06T07:43:30.791Z,6036
2017-11-06T07:44:40.792Z,6404
2017-11-06T07:45:51.129Z,6876
2017-11-06T07:47:01.699Z,7388
2017-11-06T07:48:11.931Z,7860
2017-11-06T07:49:21.574Z,8288
2017-11-06T07:50:31.905Z,8644
2017-11-06T07:51:42.213Z,8864
2017-11-06T07:52:52.866Z,9132
2017-11-06T07:54:03.731Z,9504
2017-11-06T07:55:14.067Z,9776
2017-11-06T07:56:24.369Z,9864
2017-11-06T07:57:34.679Z,9724
2017-11-06T07:58:44.987Z,9448
2017-11-06T07:59:55.276Z,9216
2017-11-06T08:01:05.587Z,9108
2017-11-06T08:02:15.883Z,9056
2017-11-06T08:03:26.219Z,9064
2017-11-06T08:04:36.516Z,9084
2017-11-06T08:05:46.856Z,9196
2017-11-06T08:06:57.149Z,9236
2017-11-06T08:08:07.440Z,9272
2017-11-06T08:09:17.433Z,9240
2017-11-06T08:10:27.729Z,9232
2017-11-06T08:11:38.018Z,9296
2017-11-06T08:12:48.313Z,9376
2017-11-06T08:13:58.611Z,9488
2017-11-06T08:15:08.930Z,9700
2017-11-06T08:16:19.231Z,9896
2017-11-06T08:17:29.547Z,10212
2017-11-06T08:18:39.195Z,10356
2017-11-06T08:19:49.508Z,10372
2017-11-06T08:20:59.473Z,10456
2017-11-06T08:22:09.798Z,10856
2017-11-06T08:23:19.459Z,11244
2017-11-06T08:24:29.762Z,11392
2017-11-06T08:25:40.308Z,11184
2017-11-06T08:26:50.643Z,10816
2017-11-06T08:28:00.625Z,10320
2017-11-06T08:29:10.939Z,9736
2017-11-06T08:30:21.263Z,9044
2017-11-06T08:31:31.571Z,8448
2017-11-06T08:32:41.566Z,8148
2017-11-06T08:33:51.552Z,8704
2017-11-06T08:35:01.534Z,9132
2017-11-06T08:36:11.963Z,8956
2017-11-06T08:37:22.311Z,8892
2017-11-06T08:38:32.637Z,8652
2017-11-06T08:39:42.320Z,8784
2017-11-06T08:40:52.626Z,9232
2017-11-06T08:42:02.598Z,9908
2017-11-06T08:43:12.904Z,10736
2017-11-06T08:44:23.272Z,11616
2017-11-06T08:45:32.911Z,12332
2017-11-06T08:46:43.224Z,12532
2017-11-06T08:47:53.544Z,12352
2017-11-06T08:49:03.875Z,12064
2017-11-06T08:50:14.193Z,11892
2017-11-06T08:51:24.552Z,11808
2017-11-06T08:52:34.862Z,11728
2017-11-06T08:53:45.149Z,11504
2017-11-06T08:54:55.137Z,11324
2017-11-06T08:56:05.450Z,11280
2017-11-06T08:57:15.756Z,11220
2017-11-06T08:58:26.115Z,11032
2017-11-06T08:59:35.803Z,10832
2017-11-06T09:00:45.803Z,10508
2017-11-06T09:01:56.163Z,10424
2017-11-06T09:03:06.497Z,10288
2017-11-06T09:04:16.895Z,10220
2017-11-06T09:05:26.258Z,10240
2017-11-06T09:06:36.248Z,10168
2017-11-06T09:07:46.621Z,10112
2017-11-06T09:08:57.965Z,10004
2017-11-06T09:10:08.533Z,9812
2017-11-06T09:11:18.551Z,9664
2017-11-06T09:12:28.880Z,9616
2017-11-06T09:13:38.886Z,9628
2017-11-06T09:14:49.168Z,9692
2017-11-06T09:15:58.507Z,9852
2017-11-06T09:17:08.513Z,9992
2017-11-06T09:18:18.819Z,10084
2017-11-06T09:19:28.776Z,10196
2017-11-06T09:20:39.103Z,10296
2017-11-06T09:21:49.395Z,10516
2017-11-06T09:22:59.692Z,10652
2017-11-06T09:24:10.019Z,10768
2017-11-06T09:25:19.690Z,11072
2017-11-06T09:26:29.410Z,11416
2017-11-06T09:27:39.407Z,11932
2017-11-06T09:28:49.712Z,12396
2017-11-06T09:30:00.023Z,12776
2017-11-06T09:31:10.320Z,13116
2017-11-06T09:32:20.623Z,13468
2017-11-06T09:33:30.933Z,14016
2017-11-06T09:34:40.902Z,14608
2017-11-06T09:35:51.197Z,14912
2017-11-06T09:37:01.508Z,15296
2017-11-06T09:38:11.809Z,15744
2017-11-06T09:39:21.804Z,16332
2017-11-06T09:40:31.809Z,16940
2017-11-06T09:41:41.787Z,17728
2017-11-06T09:42:52.091Z,18176
2017-11-06T09:44:02.397Z,18592
2017-11-06T09:45:12.374Z,19072
2017-11-06T09:46:22.722Z,19776
2017-11-06T09:47:32.719Z,20768
2017-11-06T09:48:43.031Z,21504
2017-11-06T09:49:53.342Z,22240
2017-11-06T09:51:03.681Z,22560
2017-11-06T09:52:14.024Z,22752
2017-11-06T09:53:24.388Z,22912
2017-11-06T09:54:34.716Z,23328
2017-11-06T09:55:44.715Z,23872
2017-11-06T09:56:54.691Z,24064
2017-11-06T09:58:04.327Z,24000
2017-11-06T09:59:14.641Z,23904
2017-11-06T10:00:24.274Z,23808
2017-11-06T10:01:34.257Z,23488
2017-11-06T10:02:44.665Z,23104
2017-11-06T10:03:55.004Z,22912
2017-11-06T10:05:05.523Z,23168
2017-11-06T10:06:15.831Z,23392
2017-11-06T10:07:26.174Z,23712
2017-11-06T10:08:36.174Z,23488
2017-11-06T10:09:46.493Z,23552
2017-11-06T10:10:56.798Z,24416
2017-11-06T10:12:07.100Z,25024
2017-11-06T10:13:17.070Z,25056
2017-11-06T10:14:27.387Z,25024
2017-11-06T10:15:37.677Z,25376
2017-11-06T10:16:47.657Z,26784
2017-11-06T10:17:57.973Z,29856
2017-11-06T10:19:08.271Z,31200
2017-11-06T10:20:18.236Z,31328
2017-11-06T10:21:28.531Z,32032
2017-11-06T10:22:38.833Z,31648
2017-11-06T10:23:49.148Z,33280
2017-11-06T10:24:59.454Z,32128
2017-11-06T10:26:09.756Z,32960
2017-11-06T10:27:20.079Z,35040
2017-11-06T10:28:30.400Z,42880
2017-11-06T10:29:40.959Z,77664
2017-11-06T10:30:51.261Z,98176
2017-11-06T10:32:01.229Z,53248
2017-11-06T10:33:11.522Z,59936
2017-11-06T10:34:21.515Z,59968
2017-11-06T10:35:31.497Z,38624
2017-11-06T10:36:41.473Z,50560
2017-11-06T10:37:51.784Z,44800
2017-11-06T10:39:01.771Z,46944
2017-11-06T10:40:12.072Z,54304
2017-11-06T10:41:22.363Z,53952
2017-11-06T10:42:32.661Z,57568
2017-11-06T10:43:42.987Z,57024
2017-11-06T10:44:53.313Z,68704
2017-11-06T10:46:02.984Z,66272
2017-11-06T10:47:13.293Z,33312
2017-11-06T10:48:23.604Z,34080
2017-11-06T10:49:33.578Z,49760
2017-11-06T10:50:43.891Z,86912
2017-11-06T10:51:53.884Z,66944
2017-11-06T10:53:04.180Z,56928
2017-11-06T10:54:14.489Z,67232
2017-11-06T10:55:24.807Z,71456
2017-11-06T10:56:34.832Z,91040
2017-11-06T10:57:45.140Z,101568
2017-11-06T10:58:55.465Z,50912
2017-11-06T11:00:05.791Z,65792
2017-11-06T11:01:16.089Z,78784
2017-11-06T11:02:26.051Z,87616
2017-11-06T11:03:36.048Z,81568
2017-11-06T11:04:46.370Z,28800
2017-11-06T11:05:56.344Z,25440
2017-11-06T11:07:06.649Z,33760
2017-11-06T11:08:17.192Z,29184
2017-11-06T11:09:27.158Z,54048
2017-11-06T11:10:37.459Z,91104
2017-11-06T11:11:47.452Z,90368
2017-11-06T11:12:57.777Z,91968
2017-11-06T11:14:08.088Z,93152
2017-11-06T11:15:18.399Z,91232
2017-11-06T11:16:28.753Z,90080
2017-11-06T11:17:39.092Z,88480
2017-11-06T11:18:49.393Z,83840
2017-11-06T11:19:59.696Z,81728
2017-11-06T11:21:10.014Z,82848
2017-11-06T11:22:20.001Z,86688
2017-11-06T11:23:30.313Z,88192
2017-11-06T11:24:40.621Z,87968
2017-11-06T11:25:50.954Z,89888
2017-11-06T11:27:01.263Z,90528
2017-11-06T11:28:11.573Z,89696
2017-11-06T11:29:21.897Z,90784
2017-11-06T11:30:31.548Z,83744
2017-11-06T11:31:41.883Z,89952
2017-11-06T11:32:52.208Z,85312
2017-11-06T11:34:02.524Z,88448
2017-11-06T11:35:12.497Z,87584
2017-11-06T11:36:22.803Z,87200
2017-11-06T11:37:33.114Z,86880
2017-11-06T11:38:42.772Z,91104
2017-11-06T11:39:53.092Z,89632
2017-11-06T11:41:03.440Z,81280
2017-11-06T11:42:13.764Z,79296
2017-11-06T11:43:23.754Z,85408
2017-11-06T11:44:33.755Z,84480
2017-11-06T11:45:44.077Z,83776
2017-11-06T11:46:54.401Z,85856
2017-11-06T11:48:04.402Z,89408
2017-11-06T11:49:14.376Z,86816
2017-11-06T11:50:24.691Z,90144
2017-11-06T11:51:35.040Z,89792
2017-11-06T11:52:45.349Z,89440
2017-11-06T11:53:55.342Z,92704
2017-11-06T11:55:05.318Z,94144
2017-11-06T11:56:15.633Z,93152
2017-11-06T11:57:25.930Z,91680
2017-11-06T11:58:36.238Z,94560
2017-11-06T11:59:46.560Z,94784
2017-11-06T12:00:56.529Z,92800
2017-11-06T12:02:06.846Z,98272
2017-11-06T12:03:17.155Z,97120
2017-11-06T12:04:27.499Z,96736
2017-11-06T12:05:37.484Z,93856
2017-11-06T12:06:47.856Z,94016
2017-11-06T12:07:57.197Z,96640
2017-11-06T12:09:07.515Z,97248
2017-11-06T12:10:17.492Z,99104
2017-11-06T12:11:27.832Z,96256
2017-11-06T12:12:38.141Z,97952
2017-11-06T12:13:48.140Z,95200
2017-11-06T12:14:58.126Z,93152
2017-11-06T12:16:08.126Z,99488
2017-11-06T12:17:18.438Z,97248
2017-11-06T12:18:28.744Z,93280
2017-11-06T12:19:38.714Z,96640
2017-11-06T12:20:49.041Z,92320
2017-11-06T12:21:59.363Z,71328
2017-11-06T12:23:09.729Z,70400
2017-11-06T12:24:19.693Z,82976
2017-11-06T12:25:29.707Z,90944
2017-11-06T12:26:39.873Z,92192
2017-11-06T12:27:49.889Z,91616
2017-11-06T12:29:00.188Z,88384
2017-11-06T12:30:10.193Z,88608
2017-11-06T12:31:20.183Z,82112
2017-11-06T12:32:30.176Z,81024
2017-11-06T12:33:40.508Z,85696
2017-11-06T12:34:50.855Z,84576
2017-11-06T12:36:01.166Z,80864
2017-11-06T12:37:11.491Z,81600
2017-11-06T12:38:21.462Z,76800
2017-11-06T12:39:31.449Z,67840
2017-11-06T12:40:41.760Z,67520
2017-11-06T12:41:51.667Z,65536
2017-11-06T12:43:02.008Z,69824
2017-11-06T12:44:11.741Z,43520
2017-11-06T12:45:22.111Z,58080
2017-11-06T12:46:32.167Z,74688
2017-11-06T12:47:42.257Z,78656
2017-11-06T12:48:52.582Z,80384
2017-11-06T12:50:02.947Z,87584
2017-11-06T12:51:13.279Z,84640
2017-11-06T12:52:23.252Z,83648
2017-11-06T12:53:33.561Z,86912
2017-11-06T12:54:43.542Z,85312
2017-11-06T12:55:53.531Z,79456
2017-11-06T12:57:03.530Z,80736
2017-11-06T12:58:13.841Z,87040
2017-11-06T12:59:23.845Z,84416
2017-11-06T13:00:33.820Z,82432
2017-11-06T13:01:44.136Z,84896
2017-11-06T13:02:54.478Z,81696
2017-11-06T13:04:04.783Z,81664
2017-11-06T13:05:15.089Z,76800
2017-11-06T13:06:25.428Z,76160
2017-11-06T13:07:35.400Z,76032
2017-11-06T13:08:45.938Z,75328
2017-11-06T13:09:56.309Z,74720
2017-11-06T13:11:06.652Z,71104
2017-11-06T13:12:16.976Z,70816
2017-11-06T13:13:27.287Z,70432
2017-11-06T13:14:36.954Z,70880
2017-11-06T13:15:46.946Z,70240
2017-11-06T13:16:57.246Z,70912
2017-11-06T13:18:07.552Z,68320
2017-11-06T13:19:17.875Z,72000
2017-11-06T13:20:28.184Z,82176
2017-11-06T13:21:38.492Z,78880
2017-11-06T13:22:48.823Z,74816
2017-11-06T13:23:59.145Z,85504
2017-11-06T13:25:09.132Z,83904
2017-11-06T13:26:18.803Z,74720
2017-11-06T13:27:29.116Z,72224
2017-11-06T13:28:39.439Z,68000
2017-11-06T13:29:49.444Z,66400
2017-11-06T13:30:59.413Z,38432
2017-11-06T13:32:09.737Z,73248
2017-11-06T13:33:20.047Z,68992
2017-11-06T13:34:30.036Z,68896
2017-11-06T13:35:40.344Z,69728
2017-11-06T13:36:50.658Z,65696
2017-11-06T13:38:00.307Z,67680
2017-11-06T13:39:10.290Z,72960
2017-11-06T13:40:20.609Z,67136
2017-11-06T13:41:30.592Z,64384
2017-11-06T13:42:40.892Z,64448
2017-11-06T13:43:51.203Z,63424
2017-11-06T13:45:01.186Z,64544
2017-11-06T13:46:11.494Z,54720
2017-11-06T13:47:21.141Z,63392
2017-11-06T13:48:31.448Z,63264
2017-11-06T13:49:41.775Z,60576
2017-11-06T13:50:51.768Z,61376
2017-11-06T13:52:02.086Z,58656
2017-11-06T13:53:12.401Z,60416
2017-11-06T13:54:22.393Z,58240
2017-11-06T13:55:32.698Z,56256
2017-11-06T13:56:43.009Z,56448
2017-11-06T13:57:53.341Z,58848
2017-11-06T13:59:02.340Z,56576
2017-11-06T14:00:12.671Z,30112
2017-11-06T14:01:22.667Z,37664
2017-11-06T14:02:32.967Z,54112
2017-11-06T14:03:43.291Z,54048
2017-11-06T14:04:53.630Z,53344
2017-11-06T14:06:03.943Z,53568
2017-11-06T14:07:14.262Z,52704
2017-11-06T14:08:24.592Z,51552
2017-11-06T14:09:34.903Z,48384
2017-11-06T14:10:45.204Z,47072
2017-11-06T14:11:55.503Z,48320
2017-11-06T14:13:05.826Z,47840
2017-11-06T14:14:16.135Z,48192
2017-11-06T14:15:26.461Z,42560
2017-11-06T14:16:36.770Z,45184
2017-11-06T14:17:46.763Z,53632
2017-11-06T14:18:57.085Z,47168
2017-11-06T14:20:07.394Z,44480
2017-11-06T14:21:17.729Z,43808
2017-11-06T14:22:27.730Z,37024
2017-11-06T14:23:37.380Z,38496
2017-11-06T14:24:47.388Z,39328
2017-11-06T14:25:57.371Z,39840
2017-11-06T14:27:07.342Z,40000
2017-11-06T14:28:17.329Z,37024
2017-11-06T14:29:27.627Z,34016
2017-11-06T14:30:37.954Z,32608
2017-11-06T14:31:47.952Z,36768
2017-11-06T14:32:58.251Z,31424
2017-11-06T14:34:08.224Z,28160
2017-11-06T14:35:18.213Z,30368
2017-11-06T14:36:28.177Z,27648
2017-11-06T14:37:38.185Z,32608
2017-11-06T14:38:48.489Z,32416
2017-11-06T14:39:58.461Z,25472
2017-11-06T14:41:08.453Z,25280
2017-11-06T14:42:18.760Z,24384
2017-11-06T14:43:28.405Z,23008
2017-11-06T14:44:38.372Z,23648
2017-11-06T14:45:48.696Z,21408
2017-11-06T14:46:59.006Z,19712
2017-11-06T14:48:09.329Z,17984
2017-11-06T14:49:19.308Z,18304
2017-11-06T14:50:29.298Z,18688
2017-11-06T14:51:39.636Z,16864
2017-11-06T14:52:49.960Z,13184
2017-11-06T14:53:59.963Z,9036
2017-11-06T14:55:10.339Z,5148
2017-11-06T14:56:20.649Z,4604
2017-11-06T14:57:30.946Z,4432
2017-11-06T14:58:40.936Z,4264
2017-11-06T14:59:51.234Z,4096
2017-11-06T15:01:01.209Z,3924
2017-11-06T15:02:11.507Z,3756
2017-11-06T15:03:21.826Z,3592
2017-11-06T15:04:31.475Z,3428
2017-11-06T15:05:41.786Z,3268
2017-11-06T15:06:51.766Z,3108
2017-11-06T15:08:01.743Z,2952
2017-11-06T15:09:12.061Z,2804
2017-11-06T15:10:22.370Z,2652
2017-11-06T15:11:32.343Z,2512
2017-11-06T15:12:42.639Z,2368
2017-11-06T15:13:52.943Z,2228
2017-11-06T15:15:03.244Z,2092
2017-11-06T15:16:13.542Z,1956
2017-11-06T15:17:23.517Z,1824
2017-11-06T15:18:33.810Z,1700
2017-11-06T15:19:43.450Z,1580
2017-11-06T15:20:53.425Z,1460
2017-11-06T15:22:03.418Z,1348
2017-11-06T15:23:13.401Z,1244
2017-11-06T15:24:23.688Z,1140
2017-11-06T15:25:33.996Z,1044
2017-11-06T15:26:44.298Z,952
2017-11-06T15:27:54.176Z,868
2017-11-06T15:29:04.496Z,784
2017-11-06T15:30:14.465Z,708
2017-11-06T15:31:24.774Z,636
2017-11-06T15:32:34.746Z,568
2017-11-06T15:33:45.048Z,504
2017-11-06T15:34:55.018Z,452
2017-11-06T15:36:05.317Z,396
2017-11-06T15:37:15.630Z,348
2017-11-06T15:38:25.617Z,304
2017-11-06T15:39:35.916Z,260
2017-11-06T15:40:45.884Z,228
2017-11-06T15:41:55.524Z,196
2017-11-06T15:43:05.846Z,168
2017-11-06T15:44:16.147Z,144
2017-11-06T15:45:26.455Z,120
2017-11-06T15:46:36.752Z,104
2017-11-06T15:47:47.054Z,88
2017-11-06T15:48:57.349Z,72
2017-11-06T15:50:07.669Z,60
2017-11-06T15:51:17.661Z,52
2017-11-06T15:52:27.630Z,40
2017-11-06T15:53:37.925Z,36
2017-11-06T15:54:47.899Z,28
2017-11-06T15:55:58.214Z,24
2017-11-06T15:57:08.515Z,20
2017-11-06T15:58:18.500Z,16
2017-11-06T15:59:28.828Z,12